AirNav   Everest Fuels
 
 339 users online  

7A3 Lanett Municipal Airport
Lanett, Alabama, USA

GOING TO LANETT?


FAA INFORMATION EFFECTIVE 18 JUNE 2020

Location

FAA Identifier: 7A3
Lat/Long: 32-48-42.6350N 085-13-46.1470W
32-48.710583N 085-13.769117W
32.8118431,-85.2294853
(estimated)
Elevation: 624 ft. / 190.2 m (surveyed)
Variation: 00E (1980)
From city: 3 miles SW of LANETT, AL
Time zone: UTC -5 (UTC -6 during Standard Time)
Zip code: 36863

Airport Operations

Airport use: Open to the public
Activation date: 08/1959
Control tower: no
ARTCC: ATLANTA CENTER
FSS: ANNISTON FLIGHT SERVICE STATION
NOTAMs facility: ANB (NOTAM-D service available)
Attendance: UNATTENDED
Wind indicator: lighted
Segmented circle: yes
Beacon: white-green (lighted land airport)
Operates sunset to sunrise.

Airport Communications

CTAF/UNICOM: 122.8
ATLANTA APPROACH: 125.5 [0600-0000]
ATLANTA DEPARTURE: 125.5 [0600-0000]
WX AWOS-3 at LGC (14 nm NE): 126.325 (706-845-0677)
WX AWOS-3PT at AUO (16 nm SW): 132.575 (334-501-0387)
WX AWOS-3PT at PIM (18 nm E): 120.275 (706-663-2081)
  • ATLANTA LARGE TRACON PROVIDES APCH/DEP SVC 0615-2300 ON FREQ 125.5; ATLANTA ARTCC PROVIDES APCH/DEP SVC 2300-0615 ON FREQS 120.45/298.850 (COLUMBUS RCAG).

Nearby radio navigation aids

VOR radial/distance  VOR name  Freq  Var
LGCr184/14.3LAGRANGE VORTAC115.6001E
CSGr317/15.9COLUMBUS VORTAC117.1001E
TGEr047/29.6TUSKEGEE VOR/DME117.3002E
LSFr339/31.1LAWSON VOR/DME111.4002W

 
NDB name  Hdg/Dist  Freq  Var  ID
PINE MOUNTAIN267/18.127203WPIM .--. .. --
LAWSON343/32.833502WAWS .- .-- ...
COWETA COUNTY227/37.223403WEQQ . --.- --.-

Airport Services

Fuel available: 100LL
FUEL 24 HR CREDIT CARD SVC AVBL.
Parking: tiedowns
Airframe service: NONE
Powerplant service: NONE
Bottled oxygen: NONE
Bulk oxygen: NONE

Runway Information

Runway 6/24

Dimensions: 5400 x 75 ft. / 1646 x 23 m
Surface: concrete, in excellent condition
RUNWAY 6  RUNWAY 24
Latitude: 32-48.438963N32-48.982177N
Longitude: 085-14.186888W085-13.351315W
Elevation: 607.3 ft.624.0 ft.
Traffic pattern: leftleft
Runway heading: 052232
Markings: basic, in good conditionbasic, in good condition
Touchdown point: yes, no lightsyes, no lights

Airport Ownership and Management from official FAA records

Ownership: Publicly-owned
Owner: CITY OF LANETT
PO BOX 290
LANETT, AL 36863
Phone (334) 644-5200
Manager: TONY CHANDLER
PO BOX 290, PO BOX 290
LANETT, AL 36863
Phone (334) 644-5200

Airport Operational Statistics

Aircraft based on the field: 4
Single engine airplanes: 4
    
Aircraft operations: avg 63/week *
71% transient general aviation
29% local general aviation
<1% military
* for 12-month period ending 09 December 2016

Additional Remarks

DEER ON & INVOF ARPT.
FOR CD CTC ATLANTA APCH AT 678-364-6132, WHEN APCH CLSD CTC ATLANTA ARTCC AT 770-210-7692.

Instrument Procedures

NOTE: All procedures below are presented as PDF files. If you need a reader for these files, you should download the free Adobe Reader.

NOT FOR NAVIGATION. Please procure official charts for flight.
FAA instrument procedures published for use from 18 June 2020 at 0901Z to 16 July 2020 at 0900Z.

 
IAPs - Instrument Approach Procedures
VOR/DME OR GPS-A   download (167KB)
NOTE: Special Take-Off Minimums/Departure Procedures apply   download (189KB)

Other nearby airports with instrument procedures:

KLGC - LaGrange-Callaway Airport (14 nm NE)
KAUO - Auburn University Regional Airport (16 nm SW)
KPIM - Harris County Airport (18 nm E)
KCSG - Columbus Airport (23 nm SE)
06A - Moton Field Municipal Airport (31 nm SW)
 
Loc | Ops | Rwys | IFR | FBO | Links
Com | Nav | Svcs | Stats | Notes
Area around 7A3 (Lanett Municipal Airport)
 
Road maps at: MapQuest Bing Google
 
Aerial photo
WARNING: Photo may not be current or correct
Aerial photo of 7A3 (Lanett Municipal Airport)
Photo by Matt Hinkle
Photo taken 20-Sep-2008

Do you have a better or more recent aerial photo of Lanett Municipal Airport that you would like to share? If so, please send us your photo.

 
Sectional chart

 
Airport distance calculator
Flying to Lanett Municipal Airport? Find the distance to fly.

From to 7A3

Sunrise and sunset
Times for 14-Jul-2020
 Local
(UTC-5)
 Zulu
(UTC)
Morning civil twilight05:1710:17
Sunrise05:4510:45
Sunset19:4900:49
Evening civil twilight20:1701:17

Current date and time
Zulu (UTC)  14-Jul-2020 06:59:46
Local (UTC-5)  14-Jul-2020 01:59:46
 
METAR
KLGC 
14nm NE 
140635Z AUTO 00000KT 2SM CLR 22/21 A2996 RMK AO2 VIS 1/2V5 T02150210 PWINO
KAUO 
15nm SW 
140556Z AUTO 00000KT 10SM SCT050 25/23 A2998 RMK AO2 SLP159 T02500233 10300 20244 403170206 50002 $
KPIM 
18nm E 
140655Z AUTO 00000KT 10SM CLR 22/21 A2997 RMK AO2 T02160209
KCSG 
23nm SE 
140651Z AUTO 00000KT 10SM CLR 26/23 A2994 RMK AO2 SLP132 T02560233
TAF
KCSG 
23nm SE 
140530Z 1406/1506 00000KT P6SM SKC FM140900 00000KT 4SM BR FEW012 FM141400 VRB03KT P6SM FEW035 FM141800 27004KT P6SM VCSH SCT045 SCT250 FM150200 VRB03KT P6SM FEW250
NOTAMs
Click for the latest NOTAMs
NOTAMs are issued by the DoD/FAA and will open in a separate window not controlled by AirNav.

 

 
 

FBO, Fuel Providers, and Aircraft Ground Support

  
 Business Name 
 
 Contact 
 
 Services / Description 
 
Fuel Prices
 
Comments
  
City of Lanett (self-serve fuel) 706-585-7017
no information available

If you are affiliated with City of Lanett (self-serve fuel) and would like to show here your services, contact info, web link, logo, and more, click here
100LL
SS $5.20 
 Updated 03-Apr-2018
 
   write
SS=Self service
Update Fuel Prices
 

Would you like to see your business listed on this page?

 If your business provides an interesting product or service to pilots, flight crews, aircraft, or users of the Lanett Municipal Airport, you should consider listing it here.  To start the listing process, click on the button below
 
Add a business
 

Other Pages about Lanett Municipal Airport

cityoflanett.com/airport.html
 
Update a link
 
Copyright © AirNav, LLC. All rights reserved. Privacy Policy  Contact